METAR AND TAF INFORMATION
METAR FOR LFBY
ADDS - METARS form results

(0402 UTC 07 October 2022)
Data provider http://aviationweather.gov/metar/data/
 
METAR text: LFBY 070400Z AUTO 08003KT 2400 // ////// 13/13 Q1023
Conditions at: LFBY (DAX/SEYRESSE , FR) observed 0400 UTC 07 October 2022
Temperature: 13.0°C (55°F)
Dewpoint: 13.0°C (55°F) [RH = 100%]
Pressure (altimeter): 30.21 inches Hg (1023.0 mb)
Winds: from the E (80 degrees) at 3 MPH (3 knots; 1.5 m/s)
Visibility: 1.49 miles (2.40 km)
Ceiling: unknown
Clouds: missing
Weather: no significant weather observed at this time

METAR text: LFBY 070330Z AUTO VRB02KT 4600 // ////// 13/13 Q1023
Conditions at: LFBY (DAX/SEYRESSE , FR) observed 0330 UTC 07 October 2022
Temperature: 13.0°C (55°F)
Dewpoint: 13.0°C (55°F) [RH = 100%]
Pressure (altimeter): 30.21 inches Hg (1023.0 mb)
Winds: variable direction winds at 2 MPH (2 knots; 1.0 m/s)
Visibility: 2.86 miles (4.60 km)
Ceiling: unknown
Clouds: missing
Weather: no significant weather observed at this time

 AIRPORT MAP

 RUNWAY INFORMATION
Runway 08 Runway length 2625 ft Runway width 0 ft
Runway elevation 101 ft Runway displaced threshold 0 ft Runway heading 0
Runway 26 Runway length 2625 ft Runway width 0 ft
Runway elevation 106 ft Runway displaced threshold 0 ft Runway heading 0

 AIRPORT FREQUENCIES

 AIRPORT NEAR NAVIGATION AIDS



Powered by Virtual Airlines Manager [v2.6.2]